Aérodrome :
LOGIN :

S'inscrire | Disclaimer

   EN    FR    IT 

 










Légende :    VFR   VFR Marginal   IFR   IFR Intensif   IFR Très Intensif
Visi : 
Plafond : 
>= 8 km
>= 3000ft
5 à 8 km
1000 à 3000 ft
1500m à 5 km
500 à 1000 ft
800 à 1500m
200 à 500 ft
< 800m
< 200 ft
Symboles :   Orages  Brouillard  Fortes neiges  Fortes précipitations  Vent > 20 kt
SIGMETs :   Divers  Orages  Givrage  Turbulence  Onde Orograph.  Cendres Volcan.






- Altitude de l'aérodrome : 49 ft
- Code IATA : GLZ


EHGR - Gilze-Rijen Airbase

DERNIER METAR :
  • 220955Z AUTO 03010KT 320V100 9999 BKN034 10/01 Q1027 BLU NOSIG

METARs EXPIRÉS :
  • 220928Z AUTO 02009KT 290V080 9999 FEW035 BKN200 09/01 Q1027 BLU NOSIG
  • 220855Z AUTO 03009KT 320V080 9999 FEW034 09/00 Q1027 BLU NOSIG
  • 220825Z AUTO 03009KT 330V090 9999 FEW033 08/00 Q1026 BLU NOSIG
  • 220755Z AUTO 36010KT 300V050 9999 BKN300 08/01 Q1026 BLU NOSIG
  • 220725Z AUTO 36008KT 320V100 9999 FEW320 07/01 Q1026 BLU NOSIG

TAF TAF EHGR
Valide du 22 à 09h jusqu'au 22 à 21h UTC


220833Z 2209/2221 03010KT 9999 FEW035



MET'MAP, la Météo Aéronautique d'un coup d'oeil ! - Copyright ORBIFLY Décembre 2007 - Disclaimer

ORBIFLY MET'MAP TEAM :

Programmation & Développement : Alexandra Zaïnal
Sur une idée originale de : Baudouin d'Aumeries
Assistance à la programmation : Marc-Olivier Méhu
Soutien technique & logistique : Manuel Goepfert

Contact : metmap@orbifly.com




SOURCES & CREDITS :

   NOAA